Searchlight, NV

11:06 AM PDT on September 30, 2014 (GMT -0700)
Boulder City | Change Station
CLOSE
Current Station
Airport
Location: Boulder City,
Elevation: 2201 ft
Nearby Weather Stations

Elev 2201 ft 35.95 °N, 114.86 °W | Updated 11 minutes ago

Clear
Clear
77 °F
Feels Like 77 °F
N
0
Wind Variable Wind from North

Today
High -- | Low -- °F
--% Chance of Precip.
Yesterday
High -- | Low -- °F
Precip. -- in
6:33 AM 6:24 PM
Waxing Crescent, 38% visible
Pressure 29.94 in
Visibility 10.0 miles
Clouds Clear
Dew Point 39 °F
Humidity 26%
Rainfall 0.00 in
Snow Depth 1 in , 1 in , 1 in
UV 7 out of 12
Pollen 5.00 out of 12
Ozone Good
PM2.5 Good
Flu Activity Not available.
METAR KBVU 301755Z AUTO 00000KT 10SM CLR 25/04 A2994 RMK AO2

More Conditions Fewer Conditions

Pressure 29.94 in
Visibility 10.0 miles
Clouds Clear
Dew Point 39 °F
Humidity 26%
Rainfall 0.00 in
Snow Depth 1 in , 1 in , 1 in
UV 7 out of 12
Pollen 5.00 out of 12
Ozone Good
PM2.5 Good
Flu Activity Not available.
METAR KBVU 301755Z AUTO 00000KT 10SM CLR 25/04 A2994 RMK AO2

More Conditions Fewer Conditions

10-Day Weather Forecast

Almanac

Astronomy

Sep. 30, 2014 Rise Set
Actual Time 6:33 AM PDT 6:24 PM PDT
Civil Twilight 6:08 AM PDT 6:50 PM PDT
Nautical Twilight 5:38 AM PDT 7:19 PM PDT
Astronomical Twilight 5:08 AM PDT 7:49 PM PDT
Moon 12:36 PM PDT 11:07 PM PDT
Length of Visible Light 12h 41m
Length of Day
11h 50m
Tomorrow will be 2m 13s shorter.
Waxing Crescent, 38% of the Moon is Illuminated
Today
Waxing Crescent
Oct 1
First Quarter
Oct 8
Full
Oct 15
Last Quarter
Oct 23
New

Today's Extremes

State Highs State Lows

Community

WunderPhotos

Upload Photos

1,757,710 photos uploaded!

Nearby

Air Quality

  Air Quality AQ Index Pollutant
Yesterday Good
OZONE
Yesterday Good
PM10
Current Good
OZONE
Current Good
PM2.5
Tuesday Good
PM10
Tuesday Good
OZONE
Wednesday Good
PM10
Wednesday Good
OZONE
Thursday Good
PM10
Thursday Good
OZONE
Friday Good
PM10
Friday Good
OZONE
Saturday Good
PM10
Saturday Good
OZONE
Sunday Good
PM10
Sunday Good
OZONE

Snow Depth

Station Depth Elevation
Green Mountain 1 in 8000 ft
Big Creek Summit 1 in 8700 ft
Seventysix Creek 1 in 7100 ft
Marlette Lake 0 in 8000 ft
Laurel Draw 0 in 6700 ft

Earthquake Activity

City Distance Mag. Time & Date
No recent earthquake activity has been reported nearby.
Minimum magnitude displayed is 2.5.

Coastal Water Temperatures

Place Temperature
No Stations Reporting

Nearby Weather Stations